sensor_id;sensor_type;location;lat;lon;timestamp;temperature;humidity
14061;DHT22;7105;43.616;1.434;2023-05-23T00:01:48;18.20;99.90
14061;DHT22;7105;43.616;1.434;2023-05-23T00:04:13;18.20;99.90
14061;DHT22;7105;43.616;1.434;2023-05-23T00:06:43;18.10;99.90
14061;DHT22;7105;43.616;1.434;2023-05-23T00:09:15;18.10;99.90
14061;DHT22;7105;43.616;1.434;2023-05-23T00:11:41;18.00;99.90
14061;DHT22;7105;43.616;1.434;2023-05-23T00:14:14;18.00;99.90
14061;DHT22;7105;43.616;1.434;2023-05-23T00:16:44;18.00;99.90
14061;DHT22;7105;43.616;1.434;2023-05-23T00:19:11;17.90;99.90
14061;DHT22;7105;43.616;1.434;2023-05-23T00:21:39;17.80;99.90
14061;DHT22;7105;43.616;1.434;2023-05-23T00:24:06;17.80;99.90
14061;DHT22;7105;43.616;1.434;2023-05-23T00:26:32;17.80;99.90
14061;DHT22;7105;43.616;1.434;2023-05-23T00:28:58;17.60;99.90
14061;DHT22;7105;43.616;1.434;2023-05-23T00:31:24;17.60;99.90
14061;DHT22;7105;43.616;1.434;2023-05-23T00:33:50;17.60;99.90
14061;DHT22;7105;43.616;1.434;2023-05-23T00:36:15;17.60;99.90
14061;DHT22;7105;43.616;1.434;2023-05-23T00:38:42;17.50;99.90
14061;DHT22;7105;43.616;1.434;2023-05-23T00:41:10;17.40;99.90
14061;DHT22;7105;43.616;1.434;2023-05-23T00:43:36;17.40;99.90
14061;DHT22;7105;43.616;1.434;2023-05-23T00:46:02;17.40;99.90
14061;DHT22;7105;43.616;1.434;2023-05-23T00:48:28;17.40;99.90
14061;DHT22;7105;43.616;1.434;2023-05-23T00:50:55;17.40;99.90
14061;DHT22;7105;43.616;1.434;2023-05-23T00:53:23;17.30;99.90
14061;DHT22;7105;43.616;1.434;2023-05-23T00:55:50;17.30;99.90
14061;DHT22;7105;43.616;1.434;2023-05-23T00:58:15;17.30;99.90
14061;DHT22;7105;43.616;1.434;2023-05-23T01:00:42;17.30;99.90
14061;DHT22;7105;43.616;1.434;2023-05-23T01:03:09;17.40;99.90
14061;DHT22;7105;43.616;1.434;2023-05-23T01:05:50;17.30;99.90
14061;DHT22;7105;43.616;1.434;2023-05-23T01:08:20;17.30;99.90
14061;DHT22;7105;43.616;1.434;2023-05-23T01:10:46;17.20;99.90
14061;DHT22;7105;43.616;1.434;2023-05-23T01:13:23;17.30;99.90
14061;DHT22;7105;43.616;1.434;2023-05-23T01:15:57;17.30;99.90
14061;DHT22;7105;43.616;1.434;2023-05-23T01:21:52;17.30;99.90
14061;DHT22;7105;43.616;1.434;2023-05-23T01:24:31;17.30;99.90
14061;DHT22;7105;43.616;1.434;2023-05-23T01:29:34;17.20;99.90
14061;DHT22;7105;43.616;1.434;2023-05-23T01:32:03;17.30;99.90
14061;DHT22;7105;43.616;1.434;2023-05-23T01:34:32;17.30;99.90
14061;DHT22;7105;43.616;1.434;2023-05-23T01:36:59;17.30;99.90
14061;DHT22;7105;43.616;1.434;2023-05-23T01:39:25;17.20;99.90
14061;DHT22;7105;43.616;1.434;2023-05-23T01:41:51;17.20;99.90
14061;DHT22;7105;43.616;1.434;2023-05-23T01:44:17;17.20;99.90
14061;DHT22;7105;43.616;1.434;2023-05-23T01:46:43;17.20;99.90
14061;DHT22;7105;43.616;1.434;2023-05-23T01:49:11;17.10;99.90
14061;DHT22;7105;43.616;1.434;2023-05-23T01:51:38;17.10;99.90
14061;DHT22;7105;43.616;1.434;2023-05-23T01:54:04;17.00;99.90
14061;DHT22;7105;43.616;1.434;2023-05-23T01:56:30;17.10;99.90
14061;DHT22;7105;43.616;1.434;2023-05-23T01:58:56;17.10;99.90
14061;DHT22;7105;43.616;1.434;2023-05-23T02:01:22;17.00;99.90
14061;DHT22;7105;43.616;1.434;2023-05-23T02:03:48;17.00;99.90
14061;DHT22;7105;43.616;1.434;2023-05-23T02:06:14;17.00;99.90
14061;DHT22;7105;43.616;1.434;2023-05-23T02:08:39;17.00;99.90
14061;DHT22;7105;43.616;1.434;2023-05-23T02:11:05;16.90;99.90
14061;DHT22;7105;43.616;1.434;2023-05-23T02:13:33;16.90;99.90
14061;DHT22;7105;43.616;1.434;2023-05-23T02:15:59;16.90;99.90
14061;DHT22;7105;43.616;1.434;2023-05-23T02:18:25;16.90;99.90
14061;DHT22;7105;43.616;1.434;2023-05-23T02:20:54;17.00;99.90
14061;DHT22;7105;43.616;1.434;2023-05-23T02:23:21;16.90;99.90
14061;DHT22;7105;43.616;1.434;2023-05-23T02:25:46;16.90;99.90
14061;DHT22;7105;43.616;1.434;2023-05-23T02:28:12;16.80;99.90
14061;DHT22;7105;43.616;1.434;2023-05-23T02:30:38;16.80;99.90
14061;DHT22;7105;43.616;1.434;2023-05-23T02:33:05;16.80;99.90
14061;DHT22;7105;43.616;1.434;2023-05-23T02:35:31;16.80;99.90
14061;DHT22;7105;43.616;1.434;2023-05-23T02:37:57;16.70;99.90
14061;DHT22;7105;43.616;1.434;2023-05-23T02:40:22;16.70;99.90
14061;DHT22;7105;43.616;1.434;2023-05-23T02:42:48;16.70;99.90
14061;DHT22;7105;43.616;1.434;2023-05-23T02:45:16;16.70;99.90
14061;DHT22;7105;43.616;1.434;2023-05-23T02:47:41;16.70;99.90
14061;DHT22;7105;43.616;1.434;2023-05-23T02:50:08;16.60;99.90
14061;DHT22;7105;43.616;1.434;2023-05-23T02:52:33;16.60;99.90
14061;DHT22;7105;43.616;1.434;2023-05-23T02:54:59;16.60;99.90
14061;DHT22;7105;43.616;1.434;2023-05-23T02:57:25;16.60;99.90
14061;DHT22;7105;43.616;1.434;2023-05-23T02:59:50;16.50;99.90
14061;DHT22;7105;43.616;1.434;2023-05-23T03:02:16;16.40;99.90
14061;DHT22;7105;43.616;1.434;2023-05-23T03:04:42;16.40;99.90
14061;DHT22;7105;43.616;1.434;2023-05-23T03:07:07;16.40;99.90
14061;DHT22;7105;43.616;1.434;2023-05-23T03:09:35;16.40;99.90
14061;DHT22;7105;43.616;1.434;2023-05-23T03:12:01;16.40;99.90
14061;DHT22;7105;43.616;1.434;2023-05-23T03:14:26;16.40;99.90
14061;DHT22;7105;43.616;1.434;2023-05-23T03:16:52;16.20;99.90
14061;DHT22;7105;43.616;1.434;2023-05-23T03:19:18;16.30;99.90
14061;DHT22;7105;43.616;1.434;2023-05-23T03:21:43;16.20;99.90
14061;DHT22;7105;43.616;1.434;2023-05-23T03:24:09;16.20;99.90
14061;DHT22;7105;43.616;1.434;2023-05-23T03:26:34;16.30;99.90
14061;DHT22;7105;43.616;1.434;2023-05-23T03:29:00;16.30;99.90
14061;DHT22;7105;43.616;1.434;2023-05-23T03:31:26;16.30;99.90
14061;DHT22;7105;43.616;1.434;2023-05-23T03:33:52;16.30;99.90
14061;DHT22;7105;43.616;1.434;2023-05-23T03:36:20;16.30;99.90
14061;DHT22;7105;43.616;1.434;2023-05-23T03:41:51;16.10;99.90
14061;DHT22;7105;43.616;1.434;2023-05-23T03:44:16;16.10;99.90
14061;DHT22;7105;43.616;1.434;2023-05-23T03:46:42;16.00;99.90
14061;DHT22;7105;43.616;1.434;2023-05-23T03:49:08;16.00;99.90
14061;DHT22;7105;43.616;1.434;2023-05-23T03:51:34;15.90;99.90
14061;DHT22;7105;43.616;1.434;2023-05-23T03:53:59;15.90;99.90
14061;DHT22;7105;43.616;1.434;2023-05-23T03:56:25;15.80;99.90
14061;DHT22;7105;43.616;1.434;2023-05-23T03:58:50;15.80;99.90
14061;DHT22;7105;43.616;1.434;2023-05-23T04:01:16;15.80;99.90
14061;DHT22;7105;43.616;1.434;2023-05-23T04:03:42;15.80;99.90
14061;DHT22;7105;43.616;1.434;2023-05-23T04:06:07;15.80;99.90
14061;DHT22;7105;43.616;1.434;2023-05-23T04:08:33;15.80;99.90
14061;DHT22;7105;43.616;1.434;2023-05-23T04:11:00;15.80;99.90
14061;DHT22;7105;43.616;1.434;2023-05-23T04:13:26;15.80;99.90
14061;DHT22;7105;43.616;1.434;2023-05-23T04:15:52;15.80;99.90
14061;DHT22;7105;43.616;1.434;2023-05-23T04:18:20;15.80;99.90
14061;DHT22;7105;43.616;1.434;2023-05-23T04:20:46;15.70;99.90
14061;DHT22;7105;43.616;1.434;2023-05-23T04:23:12;15.70;99.90
14061;DHT22;7105;43.616;1.434;2023-05-23T04:25:38;15.70;99.90
14061;DHT22;7105;43.616;1.434;2023-05-23T04:28:04;15.70;99.90
14061;DHT22;7105;43.616;1.434;2023-05-23T04:30:31;15.70;99.90
14061;DHT22;7105;43.616;1.434;2023-05-23T04:32:57;15.80;99.90
14061;DHT22;7105;43.616;1.434;2023-05-23T04:35:24;15.80;99.90
14061;DHT22;7105;43.616;1.434;2023-05-23T04:37:51;15.90;99.90
14061;DHT22;7105;43.616;1.434;2023-05-23T04:40:21;16.00;99.90
14061;DHT22;7105;43.616;1.434;2023-05-23T04:42:47;16.00;99.90
14061;DHT22;7105;43.616;1.434;2023-05-23T04:45:14;16.00;99.90
14061;DHT22;7105;43.616;1.434;2023-05-23T04:47:40;16.00;99.90
14061;DHT22;7105;43.616;1.434;2023-05-23T04:50:06;16.30;99.90
14061;DHT22;7105;43.616;1.434;2023-05-23T04:52:32;16.40;99.90
14061;DHT22;7105;43.616;1.434;2023-05-23T04:54:59;17.10;99.90
14061;DHT22;7105;43.616;1.434;2023-05-23T04:57:24;17.70;99.90
14061;DHT22;7105;43.616;1.434;2023-05-23T04:59:50;18.10;99.90
14061;DHT22;7105;43.616;1.434;2023-05-23T05:02:16;18.50;99.90
14061;DHT22;7105;43.616;1.434;2023-05-23T05:04:42;19.00;99.90
14061;DHT22;7105;43.616;1.434;2023-05-23T05:07:07;18.90;99.90
14061;DHT22;7105;43.616;1.434;2023-05-23T05:09:33;19.70;99.90
14061;DHT22;7105;43.616;1.434;2023-05-23T05:11:59;20.20;99.90
14061;DHT22;7105;43.616;1.434;2023-05-23T05:14:25;19.90;99.90
14061;DHT22;7105;43.616;1.434;2023-05-23T05:16:52;19.00;99.90
14061;DHT22;7105;43.616;1.434;2023-05-23T05:19:19;18.30;99.90
14061;DHT22;7105;43.616;1.434;2023-05-23T05:21:46;17.60;99.90
14061;DHT22;7105;43.616;1.434;2023-05-23T05:24:11;17.00;99.90
14061;DHT22;7105;43.616;1.434;2023-05-23T05:26:37;16.70;99.90
14061;DHT22;7105;43.616;1.434;2023-05-23T05:29:03;16.60;99.90
14061;DHT22;7105;43.616;1.434;2023-05-23T05:31:29;16.60;99.90
14061;DHT22;7105;43.616;1.434;2023-05-23T05:33:54;16.50;99.90
14061;DHT22;7105;43.616;1.434;2023-05-23T05:36:20;16.60;99.90
14061;DHT22;7105;43.616;1.434;2023-05-23T05:38:46;16.50;99.90
14061;DHT22;7105;43.616;1.434;2023-05-23T05:41:12;16.60;99.90
14061;DHT22;7105;43.616;1.434;2023-05-23T05:43:38;16.30;99.90
14061;DHT22;7105;43.616;1.434;2023-05-23T05:46:04;16.30;99.90
14061;DHT22;7105;43.616;1.434;2023-05-23T05:48:29;16.10;99.90
14061;DHT22;7105;43.616;1.434;2023-05-23T05:50:55;16.00;99.90
14061;DHT22;7105;43.616;1.434;2023-05-23T05:53:20;16.00;99.90
14061;DHT22;7105;43.616;1.434;2023-05-23T05:55:46;16.10;99.90
14061;DHT22;7105;43.616;1.434;2023-05-23T05:58:12;16.10;99.90
14061;DHT22;7105;43.616;1.434;2023-05-23T06:00:37;16.10;99.90
14061;DHT22;7105;43.616;1.434;2023-05-23T06:03:09;16.00;99.90
14061;DHT22;7105;43.616;1.434;2023-05-23T06:05:36;16.00;99.90
14061;DHT22;7105;43.616;1.434;2023-05-23T06:08:02;16.10;99.90
14061;DHT22;7105;43.616;1.434;2023-05-23T06:10:28;16.20;99.90
14061;DHT22;7105;43.616;1.434;2023-05-23T06:12:55;16.20;99.90
14061;DHT22;7105;43.616;1.434;2023-05-23T06:15:20;16.30;99.90
14061;DHT22;7105;43.616;1.434;2023-05-23T06:17:46;16.30;99.90
14061;DHT22;7105;43.616;1.434;2023-05-23T06:20:12;16.40;99.90
14061;DHT22;7105;43.616;1.434;2023-05-23T06:22:37;16.60;99.90
14061;DHT22;7105;43.616;1.434;2023-05-23T06:25:04;16.50;99.90
14061;DHT22;7105;43.616;1.434;2023-05-23T06:27:30;16.50;99.90
14061;DHT22;7105;43.616;1.434;2023-05-23T06:29:56;16.60;99.90
14061;DHT22;7105;43.616;1.434;2023-05-23T06:32:21;16.60;99.90
14061;DHT22;7105;43.616;1.434;2023-05-23T06:34:47;16.80;99.90
14061;DHT22;7105;43.616;1.434;2023-05-23T06:37:13;16.80;99.90
14061;DHT22;7105;43.616;1.434;2023-05-23T06:39:39;16.80;99.90
14061;DHT22;7105;43.616;1.434;2023-05-23T06:42:04;16.90;99.90
14061;DHT22;7105;43.616;1.434;2023-05-23T06:44:30;17.00;99.90
14061;DHT22;7105;43.616;1.434;2023-05-23T06:46:56;17.00;99.90
14061;DHT22;7105;43.616;1.434;2023-05-23T06:49:23;17.00;99.90
14061;DHT22;7105;43.616;1.434;2023-05-23T06:51:50;16.80;99.90
14061;DHT22;7105;43.616;1.434;2023-05-23T06:54:16;16.90;99.90
14061;DHT22;7105;43.616;1.434;2023-05-23T06:56:42;17.00;99.90
14061;DHT22;7105;43.616;1.434;2023-05-23T06:59:07;17.00;99.90
14061;DHT22;7105;43.616;1.434;2023-05-23T07:01:33;16.90;99.90
14061;DHT22;7105;43.616;1.434;2023-05-23T07:03:59;16.90;99.90
14061;DHT22;7105;43.616;1.434;2023-05-23T07:06:25;17.00;99.90
14061;DHT22;7105;43.616;1.434;2023-05-23T07:08:52;16.90;99.90
14061;DHT22;7105;43.616;1.434;2023-05-23T07:11:22;17.00;99.90
14061;DHT22;7105;43.616;1.434;2023-05-23T07:13:48;17.10;99.90
14061;DHT22;7105;43.616;1.434;2023-05-23T07:16:13;17.20;99.90
14061;DHT22;7105;43.616;1.434;2023-05-23T07:18:39;17.20;99.90
14061;DHT22;7105;43.616;1.434;2023-05-23T07:21:05;17.40;99.90
14061;DHT22;7105;43.616;1.434;2023-05-23T07:23:34;17.50;99.90
14061;DHT22;7105;43.616;1.434;2023-05-23T07:26:00;17.40;99.90
14061;DHT22;7105;43.616;1.434;2023-05-23T07:28:27;17.50;99.90
14061;DHT22;7105;43.616;1.434;2023-05-23T07:30:54;17.50;99.90
14061;DHT22;7105;43.616;1.434;2023-05-23T07:33:22;17.50;99.90
14061;DHT22;7105;43.616;1.434;2023-05-23T07:35:48;17.70;99.90
14061;DHT22;7105;43.616;1.434;2023-05-23T07:38:14;17.90;99.90
14061;DHT22;7105;43.616;1.434;2023-05-23T07:40:40;18.00;99.90
14061;DHT22;7105;43.616;1.434;2023-05-23T07:43:06;18.40;99.90
14061;DHT22;7105;43.616;1.434;2023-05-23T07:45:31;18.20;99.90
14061;DHT22;7105;43.616;1.434;2023-05-23T07:47:57;18.10;99.90
14061;DHT22;7105;43.616;1.434;2023-05-23T07:50:23;18.10;99.90
14061;DHT22;7105;43.616;1.434;2023-05-23T07:52:49;18.20;99.90
14061;DHT22;7105;43.616;1.434;2023-05-23T07:55:16;18.20;99.90
14061;DHT22;7105;43.616;1.434;2023-05-23T07:57:41;18.30;99.90
14061;DHT22;7105;43.616;1.434;2023-05-23T08:00:08;18.70;99.90
14061;DHT22;7105;43.616;1.434;2023-05-23T08:02:34;18.60;99.90
14061;DHT22;7105;43.616;1.434;2023-05-23T08:05:00;18.50;99.90
14061;DHT22;7105;43.616;1.434;2023-05-23T08:07:25;18.60;99.90
14061;DHT22;7105;43.616;1.434;2023-05-23T08:09:51;18.80;99.90
14061;DHT22;7105;43.616;1.434;2023-05-23T08:12:17;18.90;99.90
14061;DHT22;7105;43.616;1.434;2023-05-23T08:14:43;19.50;99.90
14061;DHT22;7105;43.616;1.434;2023-05-23T08:17:10;19.70;99.90
14061;DHT22;7105;43.616;1.434;2023-05-23T08:19:36;20.10;99.90
14061;DHT22;7105;43.616;1.434;2023-05-23T08:22:02;20.50;99.90
14061;DHT22;7105;43.616;1.434;2023-05-23T08:24:29;20.70;99.90
14061;DHT22;7105;43.616;1.434;2023-05-23T08:26:55;19.90;99.90
14061;DHT22;7105;43.616;1.434;2023-05-23T08:29:20;19.80;99.90
14061;DHT22;7105;43.616;1.434;2023-05-23T08:31:46;20.10;99.90
14061;DHT22;7105;43.616;1.434;2023-05-23T08:34:12;19.90;99.90
14061;DHT22;7105;43.616;1.434;2023-05-23T08:36:39;19.90;99.90
14061;DHT22;7105;43.616;1.434;2023-05-23T08:39:06;20.50;99.90
14061;DHT22;7105;43.616;1.434;2023-05-23T08:41:33;20.80;99.90
14061;DHT22;7105;43.616;1.434;2023-05-23T08:43:59;21.50;99.90
14061;DHT22;7105;43.616;1.434;2023-05-23T08:46:26;22.00;99.90
14061;DHT22;7105;43.616;1.434;2023-05-23T08:48:53;23.00;99.90
14061;DHT22;7105;43.616;1.434;2023-05-23T08:51:24;21.90;99.90
14061;DHT22;7105;43.616;1.434;2023-05-23T08:53:50;21.60;99.90
14061;DHT22;7105;43.616;1.434;2023-05-23T08:56:18;22.80;99.90
14061;DHT22;7105;43.616;1.434;2023-05-23T08:58:45;23.70;99.90
14061;DHT22;7105;43.616;1.434;2023-05-23T09:01:13;22.60;99.90
14061;DHT22;7105;43.616;1.434;2023-05-23T09:03:40;22.50;99.90
14061;DHT22;7105;43.616;1.434;2023-05-23T09:06:09;22.60;99.90
14061;DHT22;7105;43.616;1.434;2023-05-23T09:08:35;22.80;99.90
14061;DHT22;7105;43.616;1.434;2023-05-23T09:11:02;22.50;99.90
14061;DHT22;7105;43.616;1.434;2023-05-23T09:13:29;21.60;99.90
14061;DHT22;7105;43.616;1.434;2023-05-23T09:18:36;21.60;99.90
14061;DHT22;7105;43.616;1.434;2023-05-23T09:21:02;22.20;99.90
14061;DHT22;7105;43.616;1.434;2023-05-23T09:23:32;23.00;99.90
14061;DHT22;7105;43.616;1.434;2023-05-23T09:26:05;22.60;99.90
14061;DHT22;7105;43.616;1.434;2023-05-23T09:28:36;22.50;99.90
14061;DHT22;7105;43.616;1.434;2023-05-23T09:31:04;23.10;99.90
14061;DHT22;7105;43.616;1.434;2023-05-23T09:36:04;22.40;99.90
14061;DHT22;7105;43.616;1.434;2023-05-23T09:38:31;22.00;99.90
14061;DHT22;7105;43.616;1.434;2023-05-23T09:40:58;22.10;99.90
14061;DHT22;7105;43.616;1.434;2023-05-23T09:43:24;22.30;99.90
14061;DHT22;7105;43.616;1.434;2023-05-23T09:45:51;22.40;99.90
14061;DHT22;7105;43.616;1.434;2023-05-23T09:48:16;22.80;99.90
14061;DHT22;7105;43.616;1.434;2023-05-23T09:50:45;23.20;99.90
14061;DHT22;7105;43.616;1.434;2023-05-23T09:53:11;23.30;99.90
14061;DHT22;7105;43.616;1.434;2023-05-23T09:55:37;22.80;99.90
14061;DHT22;7105;43.616;1.434;2023-05-23T09:58:05;23.10;99.90
14061;DHT22;7105;43.616;1.434;2023-05-23T10:00:31;23.00;99.90
14061;DHT22;7105;43.616;1.434;2023-05-23T10:03:10;23.40;99.90
14061;DHT22;7105;43.616;1.434;2023-05-23T10:08:33;23.90;99.90
14061;DHT22;7105;43.616;1.434;2023-05-23T10:14:03;23.10;99.90
14061;DHT22;7105;43.616;1.434;2023-05-23T10:19:26;22.40;99.90
14061;DHT22;7105;43.616;1.434;2023-05-23T10:22:00;23.30;99.90
14061;DHT22;7105;43.616;1.434;2023-05-23T10:24:28;23.90;99.90
14061;DHT22;7105;43.616;1.434;2023-05-23T10:26:54;23.70;99.90
14061;DHT22;7105;43.616;1.434;2023-05-23T10:29:23;24.00;99.90
14061;DHT22;7105;43.616;1.434;2023-05-23T10:31:50;23.80;99.90
14061;DHT22;7105;43.616;1.434;2023-05-23T10:37:00;23.10;99.90
14061;DHT22;7105;43.616;1.434;2023-05-23T10:42:21;23.60;99.90
14061;DHT22;7105;43.616;1.434;2023-05-23T10:44:50;23.30;99.90
14061;DHT22;7105;43.616;1.434;2023-05-23T10:47:25;24.10;99.90
14061;DHT22;7105;43.616;1.434;2023-05-23T10:49:54;24.20;99.90
14061;DHT22;7105;43.616;1.434;2023-05-23T10:52:23;24.20;99.90
14061;DHT22;7105;43.616;1.434;2023-05-23T10:54:53;24.30;99.90
14061;DHT22;7105;43.616;1.434;2023-05-23T10:57:22;24.40;99.90
14061;DHT22;7105;43.616;1.434;2023-05-23T10:59:51;24.20;99.90
14061;DHT22;7105;43.616;1.434;2023-05-23T11:02:27;23.50;99.90
14061;DHT22;7105;43.616;1.434;2023-05-23T11:05:22;23.70;99.90
14061;DHT22;7105;43.616;1.434;2023-05-23T11:08:10;24.20;99.90
14061;DHT22;7105;43.616;1.434;2023-05-23T11:11:00;23.90;99.90
14061;DHT22;7105;43.616;1.434;2023-05-23T11:13:52;23.10;99.90
14061;DHT22;7105;43.616;1.434;2023-05-23T11:16:39;23.00;99.90
14061;DHT22;7105;43.616;1.434;2023-05-23T11:21:54;23.10;99.90
14061;DHT22;7105;43.616;1.434;2023-05-23T11:24:22;23.50;99.90
14061;DHT22;7105;43.616;1.434;2023-05-23T11:26:57;23.40;99.90
14061;DHT22;7105;43.616;1.434;2023-05-23T11:29:28;23.50;99.90
14061;DHT22;7105;43.616;1.434;2023-05-23T11:31:55;23.30;99.90
14061;DHT22;7105;43.616;1.434;2023-05-23T11:34:25;23.40;99.90
14061;DHT22;7105;43.616;1.434;2023-05-23T11:36:54;24.00;99.90
14061;DHT22;7105;43.616;1.434;2023-05-23T11:39:21;24.10;99.90
14061;DHT22;7105;43.616;1.434;2023-05-23T11:42:01;24.00;99.90
14061;DHT22;7105;43.616;1.434;2023-05-23T11:44:27;24.10;99.90
14061;DHT22;7105;43.616;1.434;2023-05-23T11:47:03;24.30;99.90
14061;DHT22;7105;43.616;1.434;2023-05-23T11:49:30;24.70;99.90
14061;DHT22;7105;43.616;1.434;2023-05-23T11:51:57;24.60;99.90
14061;DHT22;7105;43.616;1.434;2023-05-23T11:54:24;24.70;99.90
14061;DHT22;7105;43.616;1.434;2023-05-23T11:56:52;24.80;99.90
14061;DHT22;7105;43.616;1.434;2023-05-23T11:59:18;24.00;99.90
14061;DHT22;7105;43.616;1.434;2023-05-23T12:01:43;23.60;99.90
14061;DHT22;7105;43.616;1.434;2023-05-23T12:04:10;23.80;99.90
14061;DHT22;7105;43.616;1.434;2023-05-23T12:06:39;23.90;99.90
14061;DHT22;7105;43.616;1.434;2023-05-23T12:09:11;24.30;99.90
14061;DHT22;7105;43.616;1.434;2023-05-23T12:11:39;24.00;99.90
14061;DHT22;7105;43.616;1.434;2023-05-23T12:14:06;24.00;99.90
14061;DHT22;7105;43.616;1.434;2023-05-23T12:16:32;23.40;99.90
14061;DHT22;7105;43.616;1.434;2023-05-23T12:18:59;23.60;99.90
14061;DHT22;7105;43.616;1.434;2023-05-23T12:21:25;24.00;99.90
14061;DHT22;7105;43.616;1.434;2023-05-23T12:23:51;24.30;99.90
14061;DHT22;7105;43.616;1.434;2023-05-23T12:26:17;24.20;99.90
14061;DHT22;7105;43.616;1.434;2023-05-23T12:28:44;24.00;99.90
14061;DHT22;7105;43.616;1.434;2023-05-23T12:31:16;23.90;99.90
14061;DHT22;7105;43.616;1.434;2023-05-23T12:33:43;23.90;99.90
14061;DHT22;7105;43.616;1.434;2023-05-23T12:36:12;23.80;99.90
14061;DHT22;7105;43.616;1.434;2023-05-23T12:38:39;24.30;99.90
14061;DHT22;7105;43.616;1.434;2023-05-23T12:41:16;24.20;99.90
14061;DHT22;7105;43.616;1.434;2023-05-23T12:43:51;24.20;99.90
14061;DHT22;7105;43.616;1.434;2023-05-23T12:46:17;24.40;99.90
14061;DHT22;7105;43.616;1.434;2023-05-23T12:48:42;24.80;99.90
14061;DHT22;7105;43.616;1.434;2023-05-23T12:51:08;24.60;99.90
14061;DHT22;7105;43.616;1.434;2023-05-23T12:53:34;24.70;99.90
14061;DHT22;7105;43.616;1.434;2023-05-23T12:56:00;24.80;99.90
14061;DHT22;7105;43.616;1.434;2023-05-23T12:58:27;24.80;99.90
14061;DHT22;7105;43.616;1.434;2023-05-23T13:00:53;25.00;99.90
14061;DHT22;7105;43.616;1.434;2023-05-23T13:03:18;24.90;99.90
14061;DHT22;7105;43.616;1.434;2023-05-23T13:05:44;24.50;99.90
14061;DHT22;7105;43.616;1.434;2023-05-23T13:08:10;24.30;99.90
14061;DHT22;7105;43.616;1.434;2023-05-23T13:10:37;24.30;99.90
14061;DHT22;7105;43.616;1.434;2023-05-23T13:13:03;24.30;99.90
14061;DHT22;7105;43.616;1.434;2023-05-23T13:15:30;24.60;99.90
14061;DHT22;7105;43.616;1.434;2023-05-23T13:17:56;24.30;99.90
14061;DHT22;7105;43.616;1.434;2023-05-23T13:20:21;24.50;99.90
14061;DHT22;7105;43.616;1.434;2023-05-23T13:22:47;25.10;99.90
14061;DHT22;7105;43.616;1.434;2023-05-23T13:25:13;25.30;99.90
14061;DHT22;7105;43.616;1.434;2023-05-23T13:27:39;25.40;99.90
14061;DHT22;7105;43.616;1.434;2023-05-23T13:30:05;25.00;99.90
14061;DHT22;7105;43.616;1.434;2023-05-23T13:32:31;25.20;99.90
14061;DHT22;7105;43.616;1.434;2023-05-23T13:34:56;25.00;99.90
14061;DHT22;7105;43.616;1.434;2023-05-23T13:37:22;24.80;99.90
14061;DHT22;7105;43.616;1.434;2023-05-23T13:39:48;24.70;99.90
14061;DHT22;7105;43.616;1.434;2023-05-23T13:42:13;25.10;99.90
14061;DHT22;7105;43.616;1.434;2023-05-23T13:44:39;24.80;99.90
14061;DHT22;7105;43.616;1.434;2023-05-23T13:47:14;25.20;99.90
14061;DHT22;7105;43.616;1.434;2023-05-23T13:49:41;25.10;99.90
14061;DHT22;7105;43.616;1.434;2023-05-23T13:52:07;25.20;99.90
14061;DHT22;7105;43.616;1.434;2023-05-23T13:54:33;25.20;99.90
14061;DHT22;7105;43.616;1.434;2023-05-23T13:56:59;25.20;99.90
14061;DHT22;7105;43.616;1.434;2023-05-23T13:59:26;25.10;99.90
14061;DHT22;7105;43.616;1.434;2023-05-23T14:01:52;25.50;99.90
14061;DHT22;7105;43.616;1.434;2023-05-23T14:04:18;25.90;99.90
14061;DHT22;7105;43.616;1.434;2023-05-23T14:06:45;25.70;99.90
14061;DHT22;7105;43.616;1.434;2023-05-23T14:09:10;25.70;99.90
14061;DHT22;7105;43.616;1.434;2023-05-23T14:11:37;25.60;99.90
14061;DHT22;7105;43.616;1.434;2023-05-23T14:14:03;25.60;99.90
14061;DHT22;7105;43.616;1.434;2023-05-23T14:16:29;25.60;99.90
14061;DHT22;7105;43.616;1.434;2023-05-23T14:18:55;25.80;99.90
14061;DHT22;7105;43.616;1.434;2023-05-23T14:21:21;25.10;99.90
14061;DHT22;7105;43.616;1.434;2023-05-23T14:23:47;25.30;99.90
14061;DHT22;7105;43.616;1.434;2023-05-23T14:26:12;25.80;99.90
14061;DHT22;7105;43.616;1.434;2023-05-23T14:28:38;25.90;99.90
14061;DHT22;7105;43.616;1.434;2023-05-23T14:31:04;25.30;99.90
14061;DHT22;7105;43.616;1.434;2023-05-23T14:33:30;25.30;99.90
14061;DHT22;7105;43.616;1.434;2023-05-23T14:35:55;25.60;99.90
14061;DHT22;7105;43.616;1.434;2023-05-23T14:38:21;25.60;99.90
14061;DHT22;7105;43.616;1.434;2023-05-23T14:40:47;25.90;99.90
14061;DHT22;7105;43.616;1.434;2023-05-23T14:43:14;25.70;99.90
14061;DHT22;7105;43.616;1.434;2023-05-23T14:45:40;25.60;99.90
14061;DHT22;7105;43.616;1.434;2023-05-23T14:48:06;25.90;99.90
14061;DHT22;7105;43.616;1.434;2023-05-23T14:50:32;25.50;99.90
14061;DHT22;7105;43.616;1.434;2023-05-23T14:52:58;25.80;99.90
14061;DHT22;7105;43.616;1.434;2023-05-23T14:55:24;25.90;99.90
14061;DHT22;7105;43.616;1.434;2023-05-23T14:57:50;26.10;99.90
14061;DHT22;7105;43.616;1.434;2023-05-23T15:00:17;25.50;99.90
14061;DHT22;7105;43.616;1.434;2023-05-23T15:02:42;25.50;99.90
14061;DHT22;7105;43.616;1.434;2023-05-23T15:05:08;25.60;99.90
14061;DHT22;7105;43.616;1.434;2023-05-23T15:07:34;25.70;99.90
14061;DHT22;7105;43.616;1.434;2023-05-23T15:10:00;26.00;99.90
14061;DHT22;7105;43.616;1.434;2023-05-23T15:12:27;26.00;99.90
14061;DHT22;7105;43.616;1.434;2023-05-23T15:14:53;25.90;99.90
14061;DHT22;7105;43.616;1.434;2023-05-23T15:17:19;25.70;99.90
14061;DHT22;7105;43.616;1.434;2023-05-23T15:19:47;25.40;99.90
14061;DHT22;7105;43.616;1.434;2023-05-23T15:22:12;25.60;99.90
14061;DHT22;7105;43.616;1.434;2023-05-23T15:24:38;25.70;99.90
14061;DHT22;7105;43.616;1.434;2023-05-23T15:27:04;25.80;99.90
14061;DHT22;7105;43.616;1.434;2023-05-23T15:29:30;25.40;99.90
14061;DHT22;7105;43.616;1.434;2023-05-23T15:31:58;25.30;99.90
14061;DHT22;7105;43.616;1.434;2023-05-23T15:34:23;25.30;99.90
14061;DHT22;7105;43.616;1.434;2023-05-23T15:36:49;25.70;99.90
14061;DHT22;7105;43.616;1.434;2023-05-23T15:39:15;25.90;99.90
14061;DHT22;7105;43.616;1.434;2023-05-23T15:41:42;25.50;99.90
14061;DHT22;7105;43.616;1.434;2023-05-23T15:44:08;25.30;99.90
14061;DHT22;7105;43.616;1.434;2023-05-23T15:46:34;25.30;99.90
14061;DHT22;7105;43.616;1.434;2023-05-23T15:49:01;25.20;99.90
14061;DHT22;7105;43.616;1.434;2023-05-23T15:51:27;25.10;99.90
14061;DHT22;7105;43.616;1.434;2023-05-23T15:53:53;25.20;99.90
14061;DHT22;7105;43.616;1.434;2023-05-23T15:56:19;25.20;99.90
14061;DHT22;7105;43.616;1.434;2023-05-23T15:58:44;25.20;99.90
14061;DHT22;7105;43.616;1.434;2023-05-23T16:01:10;25.00;99.90
14061;DHT22;7105;43.616;1.434;2023-05-23T16:03:36;25.00;99.90
14061;DHT22;7105;43.616;1.434;2023-05-23T16:06:03;25.00;99.90
14061;DHT22;7105;43.616;1.434;2023-05-23T16:08:30;25.20;99.90
14061;DHT22;7105;43.616;1.434;2023-05-23T16:10:56;25.20;99.90
14061;DHT22;7105;43.616;1.434;2023-05-23T16:13:22;25.50;99.90
14061;DHT22;7105;43.616;1.434;2023-05-23T16:15:47;25.10;99.90